Time;durP1;ratioP1;P1;durP2;ratioP2;P2;SDS_P1;SDS_P2;PMS_P1;PMS_P2;Temp;Humidity;BMP_temperature;BMP_pressure;BME280_temperature;BME280_humidity;BME280_pressure;Samples;Min_cycle;Max_cycle;Signal;HPM_P1;HPM_P2
2020/12/20 00:02:30;;;;;;;123.87;50.17;;;;;;;-2.27;93.37;100089.67;4140265;85;21618;-89
2020/12/20 00:08:32;;;;;;;125.10;50.63;;;;;;;-2.29;93.31;100089.68;4140082;85;21168;-89
2020/12/20 00:14:36;;;;;;;116.60;49.13;;;;;;;-2.34;93.41;100085.64;4157246;84;21304;-90
2020/12/20 00:20:38;;;;;;;112.37;48.40;;;;;;;-2.33;93.47;100081.88;4145446;85;21201;-89
2020/12/20 00:26:44;;;;;;;134.13;53.23;;;;;;;-2.42;93.06;100076.23;4129085;84;21475;-90
2020/12/20 00:32:46;;;;;;;133.17;52.17;;;;;;;-2.51;93.00;100077.83;4134599;85;21188;-90
2020/12/20 00:38:47;;;;;;;131.27;52.77;;;;;;;-2.59;93.11;100082.36;4132082;85;21129;-90
2020/12/20 00:44:49;;;;;;;121.90;51.73;;;;;;;-2.72;92.92;100084.70;4134327;85;21165;-90
2020/12/20 00:50:50;;;;;;;127.30;52.93;;;;;;;-2.78;92.73;100079.05;4138576;85;21193;-90
2020/12/20 00:56:52;;;;;;;139.07;56.70;;;;;;;-2.82;92.89;100075.30;4138712;85;21189;-90
2020/12/20 01:02:53;;;;;;;145.67;58.37;;;;;;;-2.88;92.66;100072.32;4063265;87;21324;-90
2020/12/20 01:08:55;;;;;;;149.03;64.67;;;;;;;-2.99;92.63;100065.30;4122209;85;22026;-91
2020/12/20 01:14:56;;;;;;;145.67;61.20;;;;;;;-3.13;92.35;100062.83;4137059;85;21177;-90
2020/12/20 01:20:58;;;;;;;147.80;57.47;;;;;;;-3.21;92.41;100072.95;4142668;85;21196;-89
2020/12/20 01:27:00;;;;;;;128.80;53.17;;;;;;;-3.19;92.74;100074.58;4141698;84;21757;-89
2020/12/20 01:33:02;;;;;;;121.57;54.77;;;;;;;-3.19;92.60;100070.56;4124643;85;21657;-91
2020/12/20 01:39:05;;;;;;;130.03;53.13;;;;;;;-3.21;92.75;100058.22;4117206;85;21179;-90
2020/12/20 01:45:06;;;;;;;116.63;51.00;;;;;;;-3.17;92.62;100049.66;4142450;85;21485;-90
2020/12/20 01:51:10;;;;;;;126.20;49.63;;;;;;;-3.29;92.32;100046.66;4132327;85;21200;-90
2020/12/20 01:57:19;;;;;;;132.83;53.27;;;;;;;-3.40;92.31;100057.58;4131311;85;21186;-90
2020/12/20 02:03:39;;;;;;;112.95;48.40;;;;;;;-3.46;92.31;100054.60;4135245;85;21165;-91
2020/12/20 02:09:46;;;;;;;114.67;47.07;;;;;;;-3.56;92.43;100050.51;4143422;85;21776;-90
2020/12/20 02:15:48;;;;;;;106.03;45.05;;;;;;;-3.54;92.56;100050.52;4065372;87;21621;-90
2020/12/20 02:21:50;;;;;;;119.73;46.97;;;;;;;-3.54;92.55;100049.17;4138345;84;21337;-89
2020/12/20 02:27:52;;;;;;;127.87;51.47;;;;;;;-3.46;92.71;100039.88;4166645;84;21190;-90
2020/12/20 02:33:57;;;;;;;120.07;49.83;;;;;;;-3.49;92.70;100039.84;4147143;85;21317;-90
2020/12/20 02:40:00;;;;;;;130.33;53.70;;;;;;;-3.56;92.71;100040.62;4052328;87;21209;-90
2020/12/20 02:46:04;;;;;;;132.33;52.10;;;;;;;-3.64;92.76;100046.45;4141080;84;21307;-90
2020/12/20 02:52:06;;;;;;;118.77;48.60;;;;;;;-3.71;92.78;100042.38;4134849;85;21192;-90
2020/12/20 02:58:08;;;;;;;134.13;54.13;;;;;;;-3.70;92.72;100039.45;4138279;84;21162;-89
2020/12/20 03:04:11;;;;;;;130.67;50.37;;;;;;;-3.70;92.82;100043.47;4145422;85;21137;-90
2020/12/20 03:10:16;;;;;;;130.37;53.37;;;;;;;-3.73;92.77;100037.26;4146401;85;21206;-90
2020/12/20 03:16:17;;;;;;;134.77;55.33;;;;;;;-3.66;93.07;100037.05;4051393;86;21295;-90
2020/12/20 03:22:19;;;;;;;143.07;53.63;;;;;;;-3.60;93.00;100038.16;4150982;84;21221;-89
2020/12/20 03:28:25;;;;;;;139.15;51.25;;;;;;;-3.62;93.01;100036.82;4150299;85;21611;-90
2020/12/20 03:34:50;;;;;;;132.17;50.60;;;;;;;-3.48;93.13;100040.66;4447752;79;23709;-90
2020/12/20 03:40:54;;;;;;;128.20;50.70;;;;;;;-3.41;93.09;100052.75;4394478;80;21350;-90
2020/12/20 03:46:55;;;;;;;125.40;49.27;;;;;;;-3.37;92.91;100051.70;4386187;80;21159;-89
2020/12/20 03:52:58;;;;;;;111.77;45.97;;;;;;;-3.43;93.02;100048.73;4389398;80;21145;-90
2020/12/20 03:59:02;;;;;;;119.40;47.27;;;;;;;-3.41;92.76;100051.41;4387729;80;21162;-90
2020/12/20 04:05:05;;;;;;;128.60;48.73;;;;;;;-3.39;93.32;100063.20;4381861;80;22289;-90
2020/12/20 04:11:09;;;;;;;119.13;50.90;;;;;;;-3.35;93.06;100049.55;4387080;80;21130;-89
2020/12/20 04:17:11;;;;;;;128.67;49.90;;;;;;;-3.32;93.09;100065.13;4385178;80;21153;-91
2020/12/20 04:23:13;;;;;;;126.73;51.50;;;;;;;-3.35;92.97;100065.62;4387004;80;21727;-89
2020/12/20 04:29:16;;;;;;;125.60;48.80;;;;;;;-3.42;92.94;100061.86;4383084;80;21187;-90
2020/12/20 04:35:20;;;;;;;119.70;48.20;;;;;;;-3.33;93.06;100050.11;4384214;79;21606;-90
2020/12/20 04:41:25;;;;;;;117.67;48.83;;;;;;;-3.38;92.86;100056.77;4387551;79;21152;-89
2020/12/20 04:47:30;;;;;;;129.23;50.70;;;;;;;-3.30;93.04;100055.77;4383349;80;21163;-90
2020/12/20 04:53:35;;;;;;;116.80;48.40;;;;;;;-3.16;93.23;100056.65;4380518;80;21160;-90
2020/12/20 04:59:38;;;;;;;118.05;47.73;;;;;;;-3.15;92.82;100061.74;4376555;80;21170;-89
2020/12/20 05:05:42;;;;;;;114.40;45.07;;;;;;;-3.15;92.82;100061.74;4381492;80;21138;-91
2020/12/20 05:11:44;;;;;;;112.57;45.70;;;;;;;-3.15;92.85;100058.25;4384354;80;21129;-89
2020/12/20 05:17:48;;;;;;;118.60;46.27;;;;;;;-3.25;92.85;100065.17;4386813;80;21543;-89
2020/12/20 05:23:51;;;;;;;108.70;44.27;;;;;;;-3.17;93.04;100065.20;4381829;80;21151;-85
2020/12/20 05:30:16;;;;;;;106.20;43.57;;;;;;;-3.14;92.93;100057.98;4593342;76;22928;-85
2020/12/20 05:36:36;;;;;;;111.47;44.80;;;;;;;-3.18;93.06;100060.93;4482994;78;21124;-85
2020/12/20 05:43:00;;;;;;;103.43;43.03;;;;;;;-3.17;93.10;100070.56;4495144;76;21156;-85
2020/12/20 05:49:17;;;;;;;98.03;41.77;;;;;;;-3.05;93.16;100071.70;4487121;78;21604;-85
2020/12/20 05:55:37;;;;;;;96.07;39.73;;;;;;;-3.13;92.90;100072.98;4522494;76;22905;-86
2020/12/20 06:01:39;;;;;;;100.77;40.57;;;;;;;-3.06;93.05;100075.44;4449480;77;21763;-85
2020/12/20 06:07:44;;;;;;;85.73;38.10;;;;;;;-3.02;93.12;100076.55;4455293;77;21177;-85
2020/12/20 06:13:47;;;;;;;97.53;39.83;;;;;;;-3.06;92.68;100088.30;4443743;77;21431;-85
2020/12/20 06:19:58;;;;;;;96.67;39.60;;;;;;;-3.11;92.79;100088.79;4453524;77;21104;-85
2020/12/20 06:26:03;;;;;;;91.00;37.33;;;;;;;-3.03;93.12;100090.46;4292981;81;21154;-85
2020/12/20 06:32:06;;;;;;;85.90;36.17;;;;;;;-3.01;92.97;100096.89;4291325;81;21188;-85
2020/12/20 06:38:13;;;;;;;86.20;34.93;;;;;;;-2.98;92.88;100089.67;4348337;81;21639;-85
2020/12/20 06:44:15;;;;;;;84.07;37.57;;;;;;;-3.06;92.65;100085.63;4348169;80;21187;-85
2020/12/20 06:50:42;;;;;;;89.53;34.87;;;;;;;-3.11;92.65;100094.97;4339862;80;21198;-85
2020/12/20 06:56:43;;;;;;;82.40;35.40;;;;;;;-3.16;92.68;100100.84;4290723;81;21152;-85
2020/12/20 07:02:48;;;;;;;81.57;35.93;;;;;;;-3.18;92.66;100106.45;4326558;80;21146;-85
2020/12/20 07:09:00;;;;;;;82.10;37.23;;;;;;;-3.22;92.66;100111.52;4295018;81;21199;-85
2020/12/20 07:15:01;;;;;;;86.00;35.53;;;;;;;-3.17;92.92;100130.83;4290866;81;21414;-85
2020/12/20 07:21:03;;;;;;;91.87;37.00;;;;;;;-3.19;92.78;100125.46;4271612;81;21137;-85
2020/12/20 07:27:06;;;;;;;75.50;35.80;;;;;;;-3.24;92.98;100128.88;4325926;80;21695;-85
2020/12/20 07:33:07;;;;;;;85.03;36.40;;;;;;;-3.14;92.81;100128.14;4290184;81;21157;-85
2020/12/20 07:39:11;;;;;;;86.03;35.63;;;;;;;-3.14;92.82;100132.16;4279338;81;21134;-86
2020/12/20 07:45:12;;;;;;;88.10;36.23;;;;;;;-3.33;92.93;100129.09;4335361;80;21638;-85
2020/12/20 07:51:26;;;;;;;90.07;37.73;;;;;;;-3.40;93.35;100125.30;4332112;81;21182;-85
2020/12/20 07:57:28;;;;;;;96.10;40.83;;;;;;;-3.38;93.44;100115.14;4303950;80;21166;-85
2020/12/20 08:03:29;;;;;;;111.60;45.70;;;;;;;-3.25;93.28;100116.05;4301799;80;21206;-85
2020/12/20 08:09:31;;;;;;;97.83;40.90;;;;;;;-3.22;93.15;100116.88;4314474;80;21170;-85
2020/12/20 08:15:32;;;;;;;99.23;38.90;;;;;;;-3.21;93.01;100121.70;4301774;80;21182;-86
2020/12/20 08:22:09;;;;;;;123.70;48.23;;;;;;;-3.19;93.12;100130.82;4304193;80;21197;-85
2020/12/20 08:28:11;;;;;;;135.70;53.33;;;;;;;-3.16;93.34;100123.60;4298937;80;22408;-86
2020/12/20 08:34:20;;;;;;;127.83;51.70;;;;;;;-3.02;93.24;100130.12;4306083;80;21166;-86
2020/12/20 08:40:22;;;;;;;126.73;52.10;;;;;;;-2.92;93.42;100128.30;4310352;80;21170;-85
2020/12/20 08:46:28;;;;;;;126.47;50.77;;;;;;;-2.76;93.46;100125.98;4318266;80;21320;-85
2020/12/20 09:09:41;;;;;;;67.83;32.27;;;;;;;-2.41;93.70;100107.89;4640677;74;22911;-85
2020/12/20 09:15:43;;;;;;;63.83;29.27;;;;;;;-2.34;93.58;100112.45;4570029;75;21314;-84
2020/12/20 09:21:48;;;;;;;69.10;28.20;;;;;;;-2.28;93.46;100110.05;4578735;75;21148;-85
2020/12/20 09:27:55;;;;;;;72.70;31.50;;;;;;;-2.19;93.45;100106.59;4579368;75;21169;-86
2020/12/20 09:34:00;;;;;;;68.87;25.60;;;;;;;-2.11;93.28;100110.63;4575837;75;21187;-85
2020/12/20 09:40:00;;;;;;;88.80;37.20;;;;;;;-2.12;93.06;100114.39;4561937;75;21148;-85
2020/12/20 09:46:02;;;;;;;97.53;43.27;;;;;;;-2.02;93.29;100111.74;4586518;75;21171;-85
2020/12/20 09:52:05;;;;;;;101.67;42.90;;;;;;;-2.01;93.24;100107.45;4557423;75;21152;-86
2020/12/20 09:58:06;;;;;;;100.23;42.53;;;;;;;-1.98;93.18;100108.78;4567133;75;21160;-85
2020/12/20 10:04:07;;;;;;;106.30;43.77;;;;;;;-2.04;93.15;100105.30;4604947;75;21125;-85
2020/12/20 10:10:09;;;;;;;106.63;43.90;;;;;;;-1.96;93.41;100106.65;4584542;75;21138;-86
2020/12/20 10:16:11;;;;;;;86.03;36.83;;;;;;;-1.91;93.42;100098.61;4580110;75;21176;-85
2020/12/20 10:22:12;;;;;;;96.30;39.33;;;;;;;-1.78;93.66;100098.88;4569153;75;21121;-85
2020/12/20 10:28:14;;;;;;;101.23;42.77;;;;;;;-1.72;93.57;100090.28;4583311;75;21355;-85
2020/12/20 10:34:15;;;;;;;104.20;40.17;;;;;;;-1.60;93.76;100078.75;4573332;75;21592;-85
2020/12/20 10:40:17;;;;;;;94.30;39.43;;;;;;;-1.55;93.50;100067.98;4495506;78;21207;-85
2020/12/20 10:46:19;;;;;;;103.77;42.67;;;;;;;-1.50;93.49;100070.67;4503748;77;21173;-85
2020/12/20 10:52:20;;;;;;;99.37;39.83;;;;;;;-1.46;93.35;100066.91;4507451;77;21137;-85
2020/12/20 10:58:22;;;;;;;102.30;43.00;;;;;;;-1.41;93.43;100072.29;4500044;77;21159;-86
2020/12/20 11:04:24;;;;;;;104.77;43.87;;;;;;;-1.37;93.40;100079.53;4504196;77;21274;-85
2020/12/20 11:10:26;;;;;;;112.37;44.03;;;;;;;-1.32;93.43;100076.84;4423452;79;21213;-85
2020/12/20 11:16:27;;;;;;;118.93;47.87;;;;;;;-1.25;93.39;100078.70;4500913;77;21163;-86
2020/12/20 11:22:29;;;;;;;130.95;49.55;;;;;;;-1.21;93.30;100086.50;4507422;77;22381;-86
2020/12/20 11:28:30;;;;;;;102.63;42.27;;;;;;;-1.18;93.22;100088.64;4492943;77;21649;-86
2020/12/20 11:34:32;;;;;;;112.87;44.57;;;;;;;-1.23;93.03;100082.45;4497975;77;21743;-86
2020/12/20 11:40:33;;;;;;;124.63;50.53;;;;;;;-1.31;93.06;100081.66;4496943;77;21187;-85
2020/12/20 11:46:35;;;;;;;126.30;50.13;;;;;;;-1.32;93.19;100086.25;4392362;79;21184;-85
2020/12/20 11:52:37;;;;;;;115.97;46.07;;;;;;;-1.29;93.17;100092.94;4489347;77;21169;-85
2020/12/20 11:58:39;;;;;;;101.03;42.07;;;;;;;-1.27;93.27;100095.64;4501626;77;21172;-85
2020/12/20 12:04:41;;;;;;;97.43;40.40;;;;;;;-1.28;93.06;100102.63;4380758;79;21193;-86
2020/12/20 12:10:46;;;;;;;98.73;39.63;;;;;;;-1.25;93.24;100098.84;4489566;78;21144;-84
2020/12/20 12:16:48;;;;;;;96.63;39.80;;;;;;;-1.25;93.07;100094.81;4486873;78;21393;-85
2020/12/20 12:22:49;;;;;;;105.27;44.63;;;;;;;-1.28;93.04;100091.89;4495740;78;21154;-86
2020/12/20 12:28:51;;;;;;;104.27;41.43;;;;;;;-1.25;93.23;100097.50;4501046;78;21294;-86
2020/12/20 12:34:53;;;;;;;97.10;39.20;;;;;;;-1.23;93.19;100086.48;4467756;78;21191;-85
2020/12/20 12:40:54;;;;;;;84.23;37.77;;;;;;;-1.17;93.31;100088.89;4469814;78;21515;-85
2020/12/20 12:46:56;;;;;;;80.72;35.20;;;;;;;-1.16;93.21;100089.15;4474380;78;22074;-85
2020/12/20 12:52:57;;;;;;;86.73;36.63;;;;;;;-1.32;92.85;100092.95;4501170;78;21116;-85
2020/12/20 12:59:00;;;;;;;99.67;39.10;;;;;;;-1.47;93.34;100096.98;4498300;78;21168;-85
2020/12/20 13:05:02;;;;;;;95.97;35.87;;;;;;;-1.40;93.47;100097.53;4621283;75;21669;-86
2020/12/20 13:11:04;;;;;;;97.87;38.73;;;;;;;-1.47;93.32;100085.46;4521562;76;21707;-85
2020/12/20 13:17:05;;;;;;;89.03;39.27;;;;;;;-1.42;93.63;100088.93;4457506;78;21799;-85
2020/12/20 13:23:07;;;;;;;100.70;40.70;;;;;;;-1.30;93.30;100092.13;4394177;79;21335;-85
2020/12/20 13:29:08;;;;;;;105.13;42.00;;;;;;;-1.26;93.32;100087.84;4427688;79;21607;-86
2020/12/20 13:35:10;;;;;;;92.37;37.33;;;;;;;-1.18;93.57;100088.64;4369008;79;21615;-85
2020/12/20 13:41:14;;;;;;;94.20;38.70;;;;;;;-1.14;93.34;100084.31;4424087;79;21205;-85
2020/12/20 13:47:16;;;;;;;91.27;37.47;;;;;;;-1.25;93.02;100088.66;4375249;79;21142;-86
2020/12/20 13:53:17;;;;;;;98.03;38.40;;;;;;;-1.30;93.30;100090.00;4469445;78;21166;-86
2020/12/20 13:59:19;;;;;;;84.33;35.83;;;;;;;-1.27;93.43;100090.80;4379474;79;21177;-86
2020/12/20 14:05:20;;;;;;;95.80;40.03;;;;;;;-1.30;93.22;100086.76;4405129;78;21268;-85
2020/12/20 14:11:21;;;;;;;92.00;37.63;;;;;;;-1.40;92.96;100084.10;4428253;78;21698;-85
2020/12/20 14:17:23;;;;;;;92.30;38.70;;;;;;;-1.49;93.10;100079.55;4396555;79;21140;-86
2020/12/20 14:23:25;;;;;;;80.53;34.47;;;;;;;-1.57;92.91;100080.34;4415394;79;21176;-85
2020/12/20 14:29:27;;;;;;;98.23;39.90;;;;;;;-1.64;93.13;100074.45;4401892;79;21153;-85
2020/12/20 14:35:28;;;;;;;89.73;37.87;;;;;;;-1.62;93.17;100072.84;4401667;79;21626;-85
2020/12/20 14:41:30;;;;;;;94.27;37.67;;;;;;;-1.64;93.09;100086.53;4418770;79;21174;-86
2020/12/20 14:47:31;;;;;;;90.90;36.97;;;;;;;-1.62;93.38;100092.45;4429553;79;21141;-85
2020/12/20 14:53:33;;;;;;;94.93;37.23;;;;;;;-1.57;93.27;100086.80;4417184;79;21368;-85
2020/12/20 14:59:35;;;;;;;84.43;33.93;;;;;;;-1.60;93.37;100084.13;4424033;79;21612;-85
2020/12/20 15:05:36;;;;;;;93.40;37.40;;;;;;;-1.60;93.42;100086.25;4405137;79;21472;-86
2020/12/20 15:11:39;;;;;;;91.13;36.43;;;;;;;-1.60;93.65;100076.06;4406683;79;21134;-85
2020/12/20 15:17:41;;;;;;;85.77;34.40;;;;;;;-1.58;93.31;100081.95;4396281;79;21590;-85
2020/12/20 15:23:44;;;;;;;82.70;34.87;;;;;;;-1.56;93.51;100083.84;4408717;79;21170;-85
2020/12/20 15:29:46;;;;;;;83.80;36.30;;;;;;;-1.60;93.38;100086.81;4405426;79;21132;-85
2020/12/20 15:35:48;;;;;;;77.43;32.33;;;;;;;-1.65;93.47;100084.94;4579811;76;21172;-85
2020/12/20 15:41:50;;;;;;;88.57;36.40;;;;;;;-1.63;93.48;100079.30;4581060;76;21173;-84
2020/12/20 15:47:51;;;;;;;76.33;31.20;;;;;;;-1.65;93.48;100077.41;4585514;76;21193;-85
2020/12/20 15:53:53;;;;;;;67.73;30.13;;;;;;;-1.79;93.34;100077.15;4590822;76;21583;-85
2020/12/20 15:59:54;;;;;;;77.23;31.23;;;;;;;-1.93;93.36;100080.09;4582733;76;21169;-84
2020/12/20 16:05:56;;;;;;;81.73;33.77;;;;;;;-1.99;93.49;100083.82;4592436;76;21603;-84
2020/12/20 16:11:58;;;;;;;78.80;33.00;;;;;;;-2.07;93.58;100083.00;4486949;78;21189;-85
2020/12/20 16:17:59;;;;;;;86.87;36.00;;;;;;;-1.96;93.81;100087.31;4478665;77;21144;-86
2020/12/20 16:24:01;;;;;;;85.93;35.90;;;;;;;-1.93;93.43;100073.39;4456516;77;21593;-85
2020/12/20 16:30:04;;;;;;;82.13;34.43;;;;;;;-1.88;93.59;100060.50;4449063;78;21549;-85
2020/12/20 16:36:07;;;;;;;86.37;34.77;;;;;;;-1.91;93.39;100063.73;4467120;77;21146;-85
2020/12/20 16:42:10;;;;;;;84.47;36.20;;;;;;;-1.97;93.56;100064.24;4470240;77;21130;-85
2020/12/20 16:48:11;;;;;;;85.97;34.83;;;;;;;-1.98;93.68;100057.27;4472968;78;21188;-84
2020/12/20 16:54:14;;;;;;;90.30;36.17;;;;;;;-1.94;93.50;100062.36;4486617;77;22045;-85
2020/12/20 17:00:16;;;;;;;93.83;35.47;;;;;;;-1.96;93.37;100071.20;4478772;78;21116;-85
2020/12/20 17:06:18;;;;;;;73.03;31.83;;;;;;;-2.00;93.37;100085.42;4362339;79;21161;-85
2020/12/20 17:12:20;;;;;;;89.40;33.90;;;;;;;-2.01;93.42;100080.62;4459582;78;21619;-85
2020/12/20 17:18:21;;;;;;;70.97;31.17;;;;;;;-2.02;93.25;100080.33;4445914;78;21196;-86
2020/12/20 17:24:23;;;;;;;81.77;34.07;;;;;;;-2.03;93.26;100076.05;4461712;78;21138;-84
2020/12/20 17:30:24;;;;;;;88.30;35.77;;;;;;;-2.05;93.27;100072.03;4420074;78;21318;-85
2020/12/20 17:36:27;;;;;;;84.77;33.07;;;;;;;-2.06;93.24;100067.72;4415412;78;21178;-86
2020/12/20 17:49:09;;;;;;;85.70;33.37;;;;;;;-2.10;93.47;100071.46;4400448;78;21170;-85
2020/12/20 17:55:12;;;;;;;80.50;35.37;;;;;;;-2.17;93.08;100064.22;4390226;79;21178;-85
2020/12/20 18:01:13;;;;;;;82.43;32.77;;;;;;;-2.36;93.37;100065.79;4278931;79;10000504;-85
2020/12/20 18:07:16;;;;;;;78.90;35.27;;;;;;;-2.47;93.55;100060.13;4477072;76;21110;-85
2020/12/20 18:13:17;;;;;;;101.73;39.77;;;;;;;-2.58;93.70;100060.35;4505716;76;21204;-84
2020/12/20 18:19:19;;;;;;;95.73;37.03;;;;;;;-2.51;93.87;100054.22;4494130;76;21348;-85
2020/12/20 18:25:21;;;;;;;79.80;32.63;;;;;;;-2.59;93.70;100064.11;4483729;76;21637;-85
2020/12/20 18:31:22;;;;;;;90.43;37.80;;;;;;;-2.63;94.06;100064.38;4472336;76;21179;-85
2020/12/20 18:37:24;;;;;;;97.67;38.47;;;;;;;-2.62;94.05;100068.66;4477106;77;21222;-85
2020/12/20 18:43:25;;;;;;;103.00;41.97;;;;;;;-2.52;93.93;100073.52;4477875;77;21138;-85
2020/12/20 18:49:27;;;;;;;92.57;39.67;;;;;;;-2.46;93.61;100072.45;4482616;77;21189;-84
2020/12/20 18:55:28;;;;;;;123.23;49.87;;;;;;;-2.46;93.66;100072.45;4488031;77;21699;-85
2020/12/20 19:07:48;;;;;;;126.50;49.33;;;;;;;-2.30;93.96;100063.94;4503506;77;22994;-86
2020/12/20 19:13:57;;;;;;;122.93;48.87;;;;;;;-2.34;93.50;100072.23;4274367;81;21174;-86
2020/12/20 19:19:59;;;;;;;124.13;47.90;;;;;;;-2.29;93.65;100069.56;4278227;81;21208;-86
2020/12/20 19:26:00;;;;;;;82.80;35.67;;;;;;;-2.24;93.57;100078.41;4296528;81;21806;-86
2020/12/20 19:32:03;;;;;;;84.50;35.87;;;;;;;-2.31;93.26;100079.74;4284567;81;21164;-86
2020/12/20 19:38:04;;;;;;;101.13;45.13;;;;;;;-2.33;93.45;100089.39;4282007;81;21210;-85
2020/12/20 19:44:09;;;;;;;78.57;34.37;;;;;;;-2.42;93.49;100090.98;4345710;80;21178;-85
2020/12/20 19:50:11;;;;;;;88.40;35.13;;;;;;;-2.42;93.51;100078.92;4347851;80;21217;-86
2020/12/20 19:56:12;;;;;;;79.67;31.90;;;;;;;-2.51;93.49;100081.84;4331583;80;21157;-85
2020/12/20 20:02:14;;;;;;;107.27;42.87;;;;;;;-2.55;93.61;100078.63;4347696;80;21197;-85
2020/12/20 20:08:16;;;;;;;92.50;39.90;;;;;;;-2.63;93.59;100072.42;4293547;81;21192;-86
2020/12/20 20:14:18;;;;;;;114.10;46.50;;;;;;;-2.72;93.59;100069.43;4330562;80;21275;-85
2020/12/20 20:20:19;;;;;;;118.20;43.30;;;;;;;-2.75;93.83;100080.68;4277921;81;21191;-85
2020/12/20 20:26:24;;;;;;;116.87;46.83;;;;;;;-2.60;93.90;100083.96;4296002;81;21176;-86
2020/12/20 20:32:25;;;;;;;124.10;48.60;;;;;;;-2.57;93.63;100082.91;4305576;81;21312;-85
2020/12/20 20:38:27;;;;;;;120.80;49.00;;;;;;;-2.57;93.42;100079.41;4303530;81;21169;-85
2020/12/20 20:44:29;;;;;;;115.77;47.20;;;;;;;-2.58;93.53;100082.61;4303074;81;21192;-85
2020/12/20 20:50:30;;;;;;;113.30;45.37;;;;;;;-2.51;93.51;100087.21;4302113;81;21208;-85
2020/12/20 20:56:40;;;;;;;97.83;39.10;;;;;;;-2.65;93.45;100088.77;4322913;80;21168;-86
2020/12/20 21:02:40;;;;;;;101.37;42.57;;;;;;;-2.74;93.66;100090.88;4278646;81;21189;-85
2020/12/20 21:08:42;;;;;;;116.87;45.07;;;;;;;-2.84;93.71;100083.59;4308881;81;21196;-86
2020/12/20 21:14:44;;;;;;;85.77;34.90;;;;;;;-2.82;94.03;100094.05;4325382;81;21904;-86
2020/12/20 21:20:46;;;;;;;86.53;33.30;;;;;;;-2.64;93.97;100093.05;4299625;81;21671;-86
2020/12/20 21:26:47;;;;;;;91.30;36.03;;;;;;;-2.59;93.71;100089.58;4302134;81;21177;-85
2020/12/20 21:32:49;;;;;;;73.87;31.00;;;;;;;-2.53;93.75;100096.56;4292319;81;21178;-85
2020/12/20 21:38:51;;;;;;;77.50;31.33;;;;;;;-2.48;93.73;100100.61;4455296;78;21747;-86
2020/12/20 21:44:52;;;;;;;75.70;32.80;;;;;;;-2.53;93.54;100086.66;4326425;80;21193;-86
2020/12/20 21:50:55;;;;;;;69.83;29.53;;;;;;;-2.55;93.59;100093.37;4293628;81;21153;-85
2020/12/20 21:56:56;;;;;;;78.30;32.90;;;;;;;-2.59;93.46;100102.46;4330280;80;21145;-85
2020/12/20 22:02:58;;;;;;;63.50;26.13;;;;;;;-2.70;93.46;100092.77;4297147;81;21568;-85
2020/12/20 22:09:00;;;;;;;71.87;29.93;;;;;;;-2.78;93.65;100099.96;4279105;81;21212;-85
2020/12/20 22:15:02;;;;;;;76.70;32.73;;;;;;;-2.91;93.69;100095.63;4286035;81;21343;-85
2020/12/20 22:21:03;;;;;;;87.60;36.50;;;;;;;-3.01;93.82;100096.38;4327311;81;21149;-84
2020/12/20 22:27:05;;;;;;;89.10;34.57;;;;;;;-3.06;93.96;100096.34;4376767;80;21647;-85
2020/12/20 22:33:06;;;;;;;123.90;48.63;;;;;;;-2.92;94.15;100095.33;4302604;81;21193;-84
2020/12/20 22:39:08;;;;;;;106.20;41.43;;;;;;;-2.86;93.70;100098.30;4290795;81;21165;-85
2020/12/20 22:45:12;;;;;;;119.57;47.50;;;;;;;-2.93;93.58;100097.74;4334088;81;21185;-85
2020/12/20 22:51:13;;;;;;;109.90;43.87;;;;;;;-3.18;93.47;100090.39;4341820;81;21173;-85
2020/12/20 22:57:16;;;;;;;130.77;52.20;;;;;;;-3.26;93.76;100091.66;4331212;81;21122;-84
2020/12/20 23:03:17;;;;;;;139.53;52.37;;;;;;;-3.40;93.75;100096.40;4330843;81;21230;-84
2020/12/20 23:09:19;;;;;;;146.23;54.30;;;;;;;-3.37;93.99;100095.88;4313372;81;21600;-85
2020/12/20 23:15:20;;;;;;;121.43;49.37;;;;;;;-3.19;93.93;100100.02;4345613;81;21181;-84
2020/12/20 23:21:22;;;;;;;133.37;51.37;;;;;;;-3.15;93.75;100094.41;4456633;78;21283;-84
2020/12/20 23:27:24;;;;;;;90.30;38.93;;;;;;;-3.07;93.73;100096.08;4475519;78;21563;-84
2020/12/20 23:33:25;;;;;;;89.93;37.43;;;;;;;-3.11;93.46;100104.34;4475215;78;21550;-84
2020/12/20 23:39:27;;;;;;;93.87;41.27;;;;;;;-3.10;93.71;100095.78;4453162;78;21295;-85
2020/12/20 23:45:28;;;;;;;99.13;40.77;;;;;;;-3.15;93.64;100091.20;4312656;81;22371;-84
2020/12/20 23:51:29;;;;;;;103.87;46.13;;;;;;;-3.11;93.62;100088.79;4304663;81;21162;-84
2020/12/20 23:57:31;;;;;;;100.87;39.83;;;;;;;-3.22;93.60;100087.94;4339705;81;21240;-87
